Time;durP1;ratioP1;P1;durP2;ratioP2;P2;SDS_P1;SDS_P2;PMS_P1;PMS_P2;Temp;Humidity;BMP_temperature;BMP_pressure;BME280_temperature;BME280_humidity;BME280_pressure;Samples;Min_cycle;Max_cycle;Signal;HPM_P1;HPM_P2
2022/05/06 00:00:00;;;;;;;40.25;29.02;;;11.90;87.30;;;;;;5115571;28;20023;-73
2022/05/06 00:02:26;;;;;;;42.85;28.08;;;11.90;87.40;;;;;;5115646;28;20089;-73
2022/05/06 00:04:51;;;;;;;42.25;28.48;;;11.90;87.10;;;;;;5115670;28;20028;-74
2022/05/06 00:07:18;;;;;;;42.45;28.95;;;11.80;86.90;;;;;;5115389;28;20044;-73
2022/05/06 00:09:44;;;;;;;42.88;28.20;;;11.90;86.90;;;;;;5115573;28;20081;-73
2022/05/06 00:12:12;;;;;;;43.03;28.77;;;11.90;86.90;;;;;;5115527;28;20020;-73
2022/05/06 00:14:38;;;;;;;46.00;31.17;;;11.90;86.80;;;;;;5115392;28;20070;-73
2022/05/06 00:17:05;;;;;;;37.53;27.77;;;11.80;86.50;;;;;;5115369;28;20391;-73
2022/05/06 00:19:31;;;;;;;35.35;25.02;;;11.70;86.80;;;;;;5115272;28;20023;-73
2022/05/06 00:21:56;;;;;;;39.72;26.17;;;11.80;87.00;;;;;;5115661;28;20036;-75
2022/05/06 00:24:22;;;;;;;39.25;27.17;;;11.80;87.00;;;;;;5115292;28;20352;-75
2022/05/06 00:26:47;;;;;;;38.72;27.13;;;11.80;86.80;;;;;;5115057;28;20031;-75
2022/05/06 00:29:13;;;;;;;45.20;28.45;;;11.80;86.40;;;;;;5114828;28;20072;-75
2022/05/06 00:31:38;;;;;;;38.30;24.63;;;11.80;86.20;;;;;;5115063;28;20023;-75
2022/05/06 00:34:04;;;;;;;36.30;24.90;;;11.90;86.20;;;;;;5115061;28;20027;-75
2022/05/06 00:36:29;;;;;;;34.80;23.58;;;11.80;86.10;;;;;;5115960;28;20126;-75
2022/05/06 00:38:55;;;;;;;42.05;27.27;;;11.90;86.10;;;;;;5114805;28;20027;-75
2022/05/06 00:41:21;;;;;;;42.10;26.10;;;11.90;85.90;;;;;;5096619;28;20468;-75
2022/05/06 00:43:46;;;;;;;33.20;24.45;;;11.90;86.00;;;;;;5114701;28;20051;-74
2022/05/06 00:46:16;;;;;;;36.72;25.02;;;11.90;86.30;;;;;;5114679;28;20036;-75
2022/05/06 00:48:47;;;;;;;39.40;25.13;;;11.90;86.40;;;;;;5114368;28;20114;-74
2022/05/06 00:51:13;;;;;;;37.17;25.20;;;12.00;86.30;;;;;;5113649;28;20475;-75
2022/05/06 00:53:40;;;;;;;33.83;24.48;;;12.00;86.40;;;;;;5114581;28;20034;-74
2022/05/06 00:56:09;;;;;;;37.10;23.67;;;12.00;86.50;;;;;;5114527;28;20032;-74
2022/05/06 00:58:35;;;;;;;37.65;23.90;;;12.00;86.40;;;;;;5114539;28;20371;-75
2022/05/06 01:01:04;;;;;;;33.60;22.60;;;12.00;86.30;;;;;;5114461;28;20099;-75
2022/05/06 01:03:31;;;;;;;38.70;26.23;;;12.10;86.40;;;;;;5114298;28;20506;-75
2022/05/06 01:05:57;;;;;;;42.95;28.02;;;12.10;86.30;;;;;;5095908;28;20038;-75
2022/05/06 01:08:23;;;;;;;37.05;24.23;;;12.00;86.30;;;;;;5114172;28;20052;-74
2022/05/06 01:10:48;;;;;;;39.92;26.75;;;12.00;86.50;;;;;;5114198;28;20486;-74
2022/05/06 01:13:15;;;;;;;34.28;23.95;;;12.10;86.90;;;;;;5114249;28;20031;-75
2022/05/06 01:15:40;;;;;;;33.75;23.33;;;12.10;87.00;;;;;;5113991;28;20012;-74
2022/05/06 01:18:13;;;;;;;34.45;24.77;;;12.10;87.00;;;;;;5114242;28;20169;-74
2022/05/06 01:20:44;;;;;;;35.58;24.67;;;12.10;87.90;;;;;;5114075;28;20460;-74
2022/05/06 01:23:10;;;;;;;34.20;24.17;;;12.10;87.10;;;;;;5095765;28;20015;-74
2022/05/06 01:25:36;;;;;;;47.10;32.00;;;12.10;87.20;;;;;;5114060;28;20019;-75
2022/05/06 01:28:03;;;;;;;39.97;27.90;;;12.10;87.20;;;;;;5113803;28;20376;-74
2022/05/06 01:30:31;;;;;;;38.65;25.25;;;12.00;87.20;;;;;;5113997;28;20485;-74
2022/05/06 01:32:59;;;;;;;41.03;27.15;;;12.00;87.20;;;;;;5113881;28;20050;-74
2022/05/06 01:35:26;;;;;;;36.38;25.02;;;12.00;87.00;;;;;;5113949;28;20051;-74
2022/05/06 01:37:54;;;;;;;37.38;25.33;;;12.00;87.00;;;;;;5113677;28;20023;-74
2022/05/06 01:40:21;;;;;;;40.80;27.63;;;12.10;87.10;;;;;;5113864;28;20020;-75
2022/05/06 01:42:50;;;;;;;40.08;26.48;;;12.00;87.00;;;;;;5113802;28;20030;-74
2022/05/06 01:45:18;;;;;;;40.28;27.52;;;12.00;86.60;;;;;;5113759;28;20031;-74
2022/05/06 01:47:45;;;;;;;39.80;27.85;;;11.90;86.90;;;;;;5113543;28;20035;-74
2022/05/06 01:50:12;;;;;;;46.45;30.73;;;11.90;86.90;;;;;;5113063;28;20484;-74
2022/05/06 01:52:40;;;;;;;43.60;29.77;;;11.80;88.30;;;;;;5113704;28;20027;-74
2022/05/06 01:55:06;;;;;;;37.47;26.52;;;11.80;88.30;;;;;;5113625;28;20531;-75
2022/05/06 01:57:32;;;;;;;42.05;26.40;;;11.80;87.90;;;;;;5113583;28;20031;-75
2022/05/06 01:59:57;;;;;;;43.65;26.38;;;11.80;87.80;;;;;;5113565;28;20020;-75
2022/05/06 02:02:23;;;;;;;37.70;26.25;;;11.80;87.70;;;;;;5113323;28;20494;-75
2022/05/06 02:07:32;;;;;;;37.60;25.05;;;11.80;87.40;;;;;;5113273;28;20086;-74
2022/05/06 02:09:58;;;;;;;37.03;24.38;;;11.90;87.30;;;;;;5113555;28;20383;-74
2022/05/06 02:12:23;;;;;;;35.95;23.85;;;11.90;87.10;;;;;;5113455;28;20027;-73
2022/05/06 02:14:49;;;;;;;38.53;25.05;;;11.90;86.90;;;;;;5113454;28;20141;-74
2022/05/06 02:17:14;;;;;;;33.33;23.30;;;11.90;86.90;;;;;;5113354;28;20035;-74
2022/05/06 02:19:42;;;;;;;36.58;25.02;;;11.90;87.00;;;;;;5113285;28;20028;-74
2022/05/06 02:22:07;;;;;;;40.45;26.75;;;11.90;87.00;;;;;;5113218;28;20031;-74
2022/05/06 02:24:33;;;;;;;44.88;29.02;;;11.90;86.80;;;;;;5113454;28;20020;-74
2022/05/06 02:26:58;;;;;;;46.03;30.25;;;11.80;86.20;;;;;;5113195;28;20132;-75
2022/05/06 02:29:24;;;;;;;45.00;26.98;;;11.60;87.70;;;;;;5113313;28;20494;-74
2022/05/06 02:34:34;;;;;;;41.42;26.38;;;11.60;87.80;;;;;;5113549;28;20035;-74
2022/05/06 02:36:59;;;;;;;33.88;24.50;;;11.60;87.90;;;;;;5113204;28;20032;-74
2022/05/06 02:39:26;;;;;;;34.22;24.00;;;11.70;87.80;;;;;;5113231;28;20032;-74
2022/05/06 02:41:52;;;;;;;33.17;21.90;;;11.70;87.60;;;;;;5113053;28;20046;-74
2022/05/06 02:44:18;;;;;;;31.90;21.83;;;11.70;87.50;;;;;;5113978;28;20467;-74
2022/05/06 02:46:43;;;;;;;35.22;23.38;;;11.70;87.30;;;;;;5114383;28;20024;-75
2022/05/06 02:49:09;;;;;;;32.45;21.58;;;11.80;87.40;;;;;;5113573;28;20178;-74
2022/05/06 02:51:35;;;;;;;37.63;23.55;;;11.80;87.40;;;;;;5113447;28;20027;-74
2022/05/06 02:54:00;;;;;;;29.42;21.13;;;11.90;87.50;;;;;;5113383;28;20030;-74
2022/05/06 02:56:26;;;;;;;33.22;23.30;;;11.90;87.30;;;;;;5113720;28;20464;-74
2022/05/06 02:58:51;;;;;;;34.58;23.80;;;11.90;87.20;;;;;;5113297;28;20132;-73
2022/05/06 03:01:17;;;;;;;32.83;22.60;;;11.90;87.10;;;;;;5112900;28;20127;-72
2022/05/06 03:03:43;;;;;;;34.70;24.02;;;11.90;87.00;;;;;;5098778;28;20418;-72
2022/05/06 03:06:08;;;;;;;40.28;26.00;;;11.90;86.80;;;;;;5112866;28;20532;-72
2022/05/06 03:08:34;;;;;;;35.90;24.45;;;11.90;86.70;;;;;;5112951;28;20028;-73
2022/05/06 03:11:00;;;;;;;32.53;22.20;;;11.90;86.50;;;;;;5112951;28;20141;-72
2022/05/06 03:13:25;;;;;;;31.10;22.60;;;11.80;86.20;;;;;;5113021;28;20035;-73
2022/05/06 03:15:52;;;;;;;38.45;23.02;;;11.80;86.20;;;;;;5116232;28;20096;-72
2022/05/06 03:18:18;;;;;;;34.03;23.08;;;11.80;86.30;;;;;;5116593;28;20026;-73
2022/05/06 03:20:44;;;;;;;37.88;26.10;;;11.80;86.40;;;;;;5116519;28;20102;-73
2022/05/06 03:23:12;;;;;;;37.75;23.85;;;11.80;86.30;;;;;;5116274;28;20011;-73
2022/05/06 03:25:37;;;;;;;38.10;22.77;;;11.80;86.30;;;;;;5116329;28;20028;-72
2022/05/06 03:28:07;;;;;;;32.25;22.67;;;11.80;86.30;;;;;;5116063;28;20027;-72
2022/05/06 03:30:39;;;;;;;40.30;23.10;;;11.80;86.30;;;;;;5116396;28;20019;-73
2022/05/06 03:33:10;;;;;;;39.90;23.50;;;11.80;86.30;;;;;;5116263;28;20472;-72
2022/05/06 03:35:37;;;;;;;41.75;27.35;;;11.80;86.30;;;;;;5116223;28;20419;-72
2022/05/06 03:38:03;;;;;;;34.28;23.10;;;11.70;87.00;;;;;;5116251;28;20066;-72
2022/05/06 03:40:29;;;;;;;28.88;21.23;;;11.70;87.10;;;;;;5116009;28;20025;-72
2022/05/06 03:42:54;;;;;;;33.13;22.35;;;11.70;87.30;;;;;;5115945;28;20030;-73
2022/05/06 03:45:20;;;;;;;35.97;23.50;;;11.80;87.30;;;;;;5116206;28;20106;-73
2022/05/06 03:47:46;;;;;;;39.63;25.80;;;11.80;87.30;;;;;;5115573;28;20036;-73
2022/05/06 03:52:55;;;;;;;34.08;22.90;;;11.80;87.30;;;;;;5115867;28;20042;-72
2022/05/06 03:55:21;;;;;;;32.13;22.05;;;11.80;87.40;;;;;;5115683;28;20024;-72
2022/05/06 03:57:47;;;;;;;33.35;22.50;;;11.80;87.10;;;;;;5115781;28;20035;-72
2022/05/06 04:00:14;;;;;;;35.28;24.10;;;11.80;87.00;;;;;;5115807;28;20028;-72
2022/05/06 04:02:40;;;;;;;30.00;22.27;;;11.80;87.10;;;;;;5115709;28;20162;-72
2022/05/06 04:05:07;;;;;;;33.78;22.08;;;11.80;87.10;;;;;;5115608;28;20024;-72
2022/05/06 04:07:33;;;;;;;34.33;23.23;;;11.80;87.00;;;;;;5115475;28;20506;-72
2022/05/06 04:09:58;;;;;;;34.03;23.77;;;11.90;86.90;;;;;;5115494;28;20110;-72
2022/05/06 04:12:24;;;;;;;35.90;26.65;;;11.80;86.80;;;;;;5115567;28;20089;-73
2022/05/06 04:14:50;;;;;;;40.90;28.90;;;11.80;87.50;;;;;;5115320;28;20051;-73
2022/05/06 04:17:16;;;;;;;47.25;29.15;;;11.70;88.80;;;;;;5115440;28;20055;-72
2022/05/06 04:23:28;;;;;;;47.35;28.63;;;11.60;89.10;;;;;;5115383;28;20020;-73
2022/05/06 04:25:14;;;;;;;37.08;25.00;;;11.50;89.40;;;;;;5115406;28;20140;-72
2022/05/06 04:27:40;;;;;;;34.63;24.77;;;11.60;89.40;;;;;;5115081;28;20036;-72
2022/05/06 04:30:06;;;;;;;34.67;24.55;;;11.60;89.40;;;;;;5115194;28;20012;-72
2022/05/06 04:32:31;;;;;;;38.67;25.42;;;11.60;89.40;;;;;;5115046;28;20024;-72
2022/05/06 04:34:57;;;;;;;38.03;24.88;;;11.70;89.40;;;;;;5114884;28;20020;-72
2022/05/06 04:37:23;;;;;;;36.97;24.75;;;11.70;89.40;;;;;;5114876;28;20028;-72
2022/05/06 04:39:49;;;;;;;43.15;28.27;;;11.70;89.10;;;;;;5114928;28;20395;-72
2022/05/06 04:42:15;;;;;;;36.88;24.40;;;11.70;88.70;;;;;;5114773;28;20039;-72
2022/05/06 04:44:41;;;;;;;37.10;25.75;;;11.70;88.80;;;;;;5114728;28;20096;-72
2022/05/06 04:47:06;;;;;;;39.08;25.60;;;11.70;88.20;;;;;;5114564;28;20478;-72
2022/05/06 04:49:32;;;;;;;42.42;28.92;;;11.70;87.50;;;;;;5114643;28;20072;-72
2022/05/06 04:51:57;;;;;;;38.15;26.23;;;11.70;87.70;;;;;;5114603;28;20022;-72
2022/05/06 04:54:24;;;;;;;43.35;28.92;;;11.60;87.70;;;;;;5114679;28;20023;-72
2022/05/06 04:56:49;;;;;;;45.50;27.98;;;11.50;88.10;;;;;;5114575;28;20027;-72
2022/05/06 04:59:15;;;;;;;49.20;29.15;;;11.50;88.30;;;;;;5114560;28;20020;-73
2022/05/06 05:01:41;;;;;;;45.95;29.48;;;11.40;89.00;;;;;;5114425;28;20430;-72
2022/05/06 05:04:06;;;;;;;40.20;27.92;;;11.40;89.20;;;;;;5114369;28;20019;-72
2022/05/06 05:06:33;;;;;;;42.58;26.75;;;11.30;89.50;;;;;;5114239;28;20046;-72
2022/05/06 05:08:59;;;;;;;43.05;27.23;;;11.30;89.60;;;;;;5114363;28;20548;-72
2022/05/06 05:11:25;;;;;;;43.80;28.02;;;11.40;89.50;;;;;;5114134;28;20095;-72
2022/05/06 05:13:50;;;;;;;41.97;25.83;;;11.40;89.50;;;;;;5113738;28;20055;-72
2022/05/06 05:16:16;;;;;;;41.53;27.58;;;11.40;89.40;;;;;;5113949;28;20038;-73
2022/05/06 05:18:42;;;;;;;42.78;27.63;;;11.40;89.20;;;;;;5113992;28;20031;-72
2022/05/06 05:21:08;;;;;;;38.42;25.58;;;11.40;89.10;;;;;;5114070;28;20020;-73
2022/05/06 05:23:33;;;;;;;35.10;24.00;;;11.40;89.00;;;;;;5113975;28;20023;-72
2022/05/06 05:25:59;;;;;;;50.80;28.95;;;11.50;89.00;;;;;;5113981;28;20492;-73
2022/05/06 05:28:24;;;;;;;44.85;27.90;;;11.50;88.80;;;;;;5113701;28;20077;-72
2022/05/06 05:30:50;;;;;;;40.90;27.42;;;11.50;88.40;;;;;;5113723;28;20027;-72
2022/05/06 05:33:15;;;;;;;41.00;27.20;;;11.50;88.20;;;;;;5113717;28;20059;-72
2022/05/06 05:35:44;;;;;;;48.10;27.33;;;11.50;88.50;;;;;;5113885;28;20460;-72
2022/05/06 05:38:10;;;;;;;44.83;27.27;;;11.50;88.50;;;;;;5113385;28;20028;-73
2022/05/06 05:40:36;;;;;;;39.00;25.75;;;11.50;88.50;;;;;;5113686;28;20050;-73
2022/05/06 05:43:03;;;;;;;38.97;25.55;;;11.50;88.40;;;;;;5113848;28;20019;-72
2022/05/06 05:48:19;;;;;;;43.75;27.13;;;11.50;88.70;;;;;;5113583;28;20046;-72
2022/05/06 05:50:45;;;;;;;45.40;29.23;;;11.40;88.90;;;;;;5113675;28;20012;-74
2022/05/06 05:53:11;;;;;;;43.38;28.73;;;11.30;89.00;;;;;;5113571;28;20028;-72
2022/05/06 05:55:37;;;;;;;46.00;29.95;;;11.30;89.30;;;;;;5113524;28;20039;-72
2022/05/06 05:58:03;;;;;;;44.55;27.95;;;11.30;89.70;;;;;;5113495;28;20032;-71
2022/05/06 06:00:29;;;;;;;46.15;29.08;;;11.20;89.80;;;;;;5113443;28;20016;-72
2022/05/06 06:02:56;;;;;;;43.65;27.88;;;11.30;90.00;;;;;;5113102;28;20027;-71
2022/05/06 06:05:22;;;;;;;47.45;28.75;;;11.20;89.90;;;;;;5113238;28;20019;-72
2022/05/06 06:07:47;;;;;;;42.22;28.63;;;11.30;90.00;;;;;;5113031;28;20072;-72
2022/05/06 06:10:13;;;;;;;39.28;28.83;;;11.20;90.20;;;;;;5112778;28;20020;-71
2022/05/06 06:12:39;;;;;;;43.92;27.58;;;11.30;90.20;;;;;;5113110;28;20424;-72
2022/05/06 06:15:05;;;;;;;47.65;29.98;;;11.30;90.00;;;;;;5113373;28;20023;-72
2022/05/06 06:17:31;;;;;;;45.90;29.00;;;11.40;89.60;;;;;;5112954;28;20471;-72
2022/05/06 06:19:56;;;;;;;47.13;28.98;;;11.40;89.40;;;;;;5112873;28;20072;-73
2022/05/06 06:22:22;;;;;;;45.53;27.80;;;11.40;89.60;;;;;;5112727;28;20031;-72
2022/05/06 06:24:48;;;;;;;49.03;29.25;;;11.30;89.50;;;;;;5112670;28;20036;-73
2022/05/06 06:27:14;;;;;;;41.63;27.45;;;11.40;89.70;;;;;;5112627;28;20034;-73
2022/05/06 06:29:40;;;;;;;40.90;27.30;;;11.30;89.40;;;;;;5112994;28;20035;-72
2022/05/06 06:32:06;;;;;;;46.92;28.52;;;11.40;89.50;;;;;;5113006;28;20519;-72
2022/05/06 06:34:31;;;;;;;40.72;28.10;;;11.40;89.70;;;;;;5094542;28;20065;-73
2022/05/06 06:36:57;;;;;;;40.95;27.25;;;11.40;89.50;;;;;;5112770;28;20031;-72
2022/05/06 06:39:23;;;;;;;39.30;24.08;;;11.50;89.70;;;;;;5112809;28;20205;-73
2022/05/06 06:41:49;;;;;;;40.90;26.45;;;11.50;89.40;;;;;;5112841;28;20106;-73
2022/05/06 06:44:14;;;;;;;38.65;24.65;;;11.50;89.00;;;;;;5112628;28;20432;-73
2022/05/06 06:46:40;;;;;;;40.50;25.95;;;11.60;88.80;;;;;;5112742;28;20024;-73
2022/05/06 06:49:05;;;;;;;33.88;21.80;;;11.60;88.80;;;;;;5113534;28;20041;-72
2022/05/06 06:51:34;;;;;;;40.95;24.90;;;11.70;88.90;;;;;;5116697;28;20472;-72
2022/05/06 06:54:00;;;;;;;34.42;21.23;;;11.70;88.30;;;;;;5116742;28;20161;-72
2022/05/06 06:56:25;;;;;;;40.85;25.83;;;11.70;88.00;;;;;;5098186;28;20052;-72
2022/05/06 06:58:51;;;;;;;38.78;25.60;;;11.70;87.80;;;;;;5116674;28;20031;-72
2022/05/06 07:01:17;;;;;;;40.17;25.45;;;11.60;87.90;;;;;;5118309;28;20024;-72
2022/05/06 07:03:42;;;;;;;43.45;26.58;;;11.60;88.60;;;;;;5116596;28;20468;-73
2022/05/06 07:11:55;;;;;;;44.03;26.35;;;11.50;88.90;;;;;;5116345;28;20557;-73
2022/05/06 07:14:21;;;;;;;36.72;24.55;;;11.50;88.80;;;;;;5116154;28;20149;-73
2022/05/06 07:16:48;;;;;;;40.58;26.13;;;11.60;88.80;;;;;;5116106;28;20027;-72
2022/05/06 07:19:13;;;;;;;40.53;17.48;;;11.50;88.40;;;;;;5116280;28;20027;-71
2022/05/06 07:21:39;;;;;;;33.25;18.52;;;11.70;90.50;;;;;;5116225;28;20023;-70
2022/05/06 07:24:05;;;;;;;33.38;19.17;;;12.00;89.80;;;;;;5116646;28;20031;-70
2022/05/06 07:26:31;;;;;;;31.95;20.92;;;12.30;88.10;;;;;;5116220;28;20149;-71
2022/05/06 07:28:57;;;;;;;27.88;18.83;;;12.60;86.10;;;;;;5116165;28;20507;-71
2022/05/06 07:31:22;;;;;;;22.90;16.35;;;12.70;84.50;;;;;;5115930;28;20028;-71
2022/05/06 07:33:48;;;;;;;28.33;16.77;;;13.00;83.80;;;;;;5115833;28;20123;-71
2022/05/06 07:36:13;;;;;;;26.25;17.02;;;13.30;82.40;;;;;;5115768;28;20028;-71
2022/05/06 07:38:39;;;;;;;21.70;16.02;;;13.50;81.50;;;;;;5115909;28;20378;-71
2022/05/06 07:41:04;;;;;;;23.20;15.57;;;13.60;80.30;;;;;;5115874;28;20034;-70
2022/05/06 07:43:30;;;;;;;23.38;16.52;;;13.80;79.10;;;;;;5115813;28;20026;-71
2022/05/06 07:45:56;;;;;;;29.92;16.92;;;13.70;79.20;;;;;;5115823;28;20110;-71
2022/05/06 07:48:22;;;;;;;22.55;15.00;;;13.80;78.90;;;;;;5115637;28;20115;-71
2022/05/06 07:50:48;;;;;;;23.40;15.75;;;13.90;78.30;;;;;;5115740;28;20055;-71
2022/05/06 07:53:15;;;;;;;21.02;14.23;;;14.10;77.10;;;;;;5115495;28;20477;-71
2022/05/06 07:55:41;;;;;;;23.02;14.50;;;14.20;76.50;;;;;;5115847;28;20102;-72
2022/05/06 07:58:06;;;;;;;23.02;17.15;;;14.20;76.40;;;;;;5115576;28;20111;-71
2022/05/06 08:00:33;;;;;;;21.65;14.07;;;14.00;76.30;;;;;;5115251;28;20569;-71
2022/05/06 08:05:46;;;;;;;19.90;14.77;;;14.00;77.10;;;;;;5115470;28;20027;-71
2022/05/06 08:08:12;;;;;;;16.80;13.55;;;14.00;76.90;;;;;;5115133;28;20055;-71
2022/05/06 08:10:37;;;;;;;19.88;14.25;;;14.00;76.90;;;;;;5115432;28;20421;-71
2022/05/06 08:13:04;;;;;;;19.63;13.98;;;14.10;76.60;;;;;;5115229;28;20506;-71
2022/05/06 08:15:29;;;;;;;22.92;15.70;;;14.20;76.50;;;;;;5115153;28;20024;-71
2022/05/06 08:17:55;;;;;;;18.38;13.80;;;14.20;76.40;;;;;;5115220;28;20027;-71
2022/05/06 08:20:20;;;;;;;18.35;13.45;;;14.20;76.00;;;;;;5115221;28;20027;-71
2022/05/06 08:22:46;;;;;;;18.67;12.93;;;14.30;75.40;;;;;;5115153;28;20028;-73
2022/05/06 08:25:12;;;;;;;20.48;14.35;;;14.30;75.50;;;;;;5115047;28;20024;-72
2022/05/06 08:27:42;;;;;;;17.65;12.48;;;14.30;75.20;;;;;;5114876;28;20071;-72
2022/05/06 08:30:09;;;;;;;17.55;12.55;;;14.20;75.20;;;;;;5115400;28;20023;-71
2022/05/06 08:32:36;;;;;;;16.25;12.52;;;14.20;75.00;;;;;;5114337;28;20506;-72
2022/05/06 08:35:03;;;;;;;15.73;12.65;;;14.30;75.20;;;;;;5114687;28;20031;-72
2022/05/06 08:37:29;;;;;;;21.58;14.02;;;14.40;75.30;;;;;;5114786;28;20019;-72
2022/05/06 08:39:54;;;;;;;20.35;14.40;;;14.40;74.50;;;;;;5114620;28;20080;-74
2022/05/06 08:42:22;;;;;;;18.88;13.27;;;14.40;74.00;;;;;;5096608;28;20115;-75
2022/05/06 08:53:05;;;;;;;22.00;15.65;;;13.70;77.40;;;;;;5114711;28;20281;-74
2022/05/06 08:55:31;;;;;;;23.02;15.50;;;13.50;77.60;;;;;;5096513;28;20065;-74
2022/05/06 08:57:57;;;;;;;20.40;15.38;;;13.30;79.00;;;;;;5096347;28;20054;-74
2022/05/06 09:00:24;;;;;;;31.25;15.82;;;13.30;79.10;;;;;;5096085;28;20058;-74
2022/05/06 09:02:50;;;;;;;22.58;15.75;;;13.30;79.50;;;;;;5096011;28;20051;-74
2022/05/06 09:05:18;;;;;;;21.00;15.52;;;13.30;78.70;;;;;;5096138;28;20024;-73
2022/05/06 09:08:04;;;;;;;20.25;15.07;;;13.30;78.90;;;;;;5095421;28;20055;-73
2022/05/06 09:10:30;;;;;;;21.50;15.75;;;13.30;78.80;;;;;;5095255;28;20035;-73
2022/05/06 09:13:00;;;;;;;18.20;14.15;;;13.30;78.50;;;;;;5095001;28;20118;-73
2022/05/06 09:18:17;;;;;;;22.95;14.38;;;13.60;78.10;;;;;;5113983;28;20079;-73
2022/05/06 09:20:42;;;;;;;23.27;15.20;;;13.80;77.70;;;;;;5095781;28;20026;-73
2022/05/06 09:23:28;;;;;;;20.73;14.57;;;13.90;77.30;;;;;;5095591;28;20023;-73
2022/05/06 09:25:55;;;;;;;18.63;12.20;;;14.00;76.20;;;;;;5095368;28;20449;-74
2022/05/06 09:28:21;;;;;;;18.40;13.13;;;14.10;76.00;;;;;;5095446;28;20410;-73
2022/05/06 09:31:09;;;;;;;17.15;12.57;;;14.20;75.20;;;;;;5095345;28;20035;-73
2022/05/06 09:33:40;;;;;;;22.88;14.00;;;14.10;73.90;;;;;;5095403;28;20509;-73
2022/05/06 09:36:26;;;;;;;16.52;12.15;;;14.10;73.90;;;;;;5095509;28;20019;-73
2022/05/06 09:39:11;;;;;;;20.20;11.80;;;14.20;74.10;;;;;;5095345;28;20113;-74
2022/05/06 09:41:41;;;;;;;14.05;10.32;;;14.30;74.20;;;;;;5095625;28;20038;-74
2022/05/06 09:44:09;;;;;;;17.80;12.40;;;14.50;74.10;;;;;;5095604;28;20462;-74
2022/05/06 09:46:35;;;;;;;18.25;11.38;;;14.60;73.40;;;;;;5095131;28;20024;-73
2022/05/06 09:49:03;;;;;;;15.38;11.88;;;14.80;73.00;;;;;;5095405;28;20023;-73
2022/05/06 09:51:30;;;;;;;14.45;11.00;;;14.80;70.80;;;;;;5095376;28;20050;-73
2022/05/06 09:53:56;;;;;;;15.85;11.27;;;14.80;70.80;;;;;;5095534;28;20025;-73
2022/05/06 09:56:24;;;;;;;16.20;11.45;;;15.00;68.70;;;;;;5095268;28;20020;-73
2022/05/06 09:58:51;;;;;;;16.20;12.02;;;15.10;69.90;;;;;;5094945;28;20487;-75
2022/05/06 10:01:18;;;;;;;16.55;10.80;;;15.40;68.70;;;;;;5095210;28;20039;-74
2022/05/06 10:03:44;;;;;;;17.73;11.38;;;15.80;68.00;;;;;;5094811;28;20395;-75
2022/05/06 10:06:10;;;;;;;14.23;11.30;;;15.70;66.30;;;;;;5094186;28;20028;-74
2022/05/06 10:08:48;;;;;;;15.10;10.48;;;15.60;66.70;;;;;;5095116;28;20031;-74
2022/05/06 10:11:17;;;;;;;17.08;10.90;;;15.90;67.30;;;;;;5095009;28;20520;-75
2022/05/06 10:13:45;;;;;;;18.58;11.13;;;16.30;67.00;;;;;;5095206;28;20451;-75
2022/05/06 10:16:11;;;;;;;17.15;11.30;;;16.60;65.70;;;;;;5094775;28;20016;-75
2022/05/06 10:18:42;;;;;;;16.38;10.57;;;16.70;63.60;;;;;;5095041;28;20028;-75
2022/05/06 10:21:07;;;;;;;14.30;10.25;;;16.80;62.70;;;;;;5095929;28;20026;-75
2022/05/06 10:23:46;;;;;;;15.75;9.35;;;16.60;63.30;;;;;;5096903;28;20023;-75
2022/05/06 10:26:37;;;;;;;12.73;10.05;;;16.90;64.30;;;;;;5099928;28;20051;-74
2022/05/06 10:35:02;;;;;;;14.07;10.60;;;17.40;61.70;;;;;;5118264;28;20097;-73
2022/05/06 10:37:39;;;;;;;12.63;10.25;;;17.50;60.70;;;;;;5100283;28;20034;-75
2022/05/06 10:40:23;;;;;;;13.10;9.75;;;17.50;60.50;;;;;;5121418;28;20068;-74
2022/05/06 10:42:49;;;;;;;12.27;9.45;;;17.40;60.60;;;;;;5140285;28;20095;-75
2022/05/06 10:45:23;;;;;;;19.55;10.00;;;17.50;60.80;;;;;;5121450;28;20034;-75
2022/05/06 10:47:50;;;;;;;15.73;10.65;;;17.30;61.30;;;;;;5120119;28;20031;-74
2022/05/06 10:50:19;;;;;;;18.83;11.75;;;17.00;60.10;;;;;;5101920;28;20024;-73
2022/05/06 10:52:46;;;;;;;15.50;10.50;;;16.50;61.80;;;;;;5100307;28;20023;-74
2022/05/06 10:55:14;;;;;;;18.27;10.88;;;16.70;62.80;;;;;;5099569;28;20023;-73
2022/05/06 10:58:05;;;;;;;13.88;10.57;;;17.00;62.50;;;;;;5099587;28;20035;-75
2022/05/06 11:00:33;;;;;;;17.45;11.02;;;17.10;60.70;;;;;;5095129;28;20035;-72
2022/05/06 11:02:59;;;;;;;14.95;10.77;;;17.20;60.60;;;;;;5104455;28;20031;-72
2022/05/06 11:05:26;;;;;;;11.48;9.68;;;17.20;60.60;;;;;;5104426;28;20053;-71
2022/05/06 11:07:55;;;;;;;16.58;11.45;;;17.30;60.10;;;;;;5098867;28;20039;-71
2022/05/06 11:10:26;;;;;;;16.13;11.25;;;17.30;60.00;;;;;;5098851;28;20415;-72
2022/05/06 11:12:53;;;;;;;11.95;9.00;;;17.50;60.50;;;;;;5098425;28;20027;-73
2022/05/06 11:15:24;;;;;;;17.00;11.73;;;17.50;60.20;;;;;;5099095;28;20026;-72
2022/05/06 11:17:51;;;;;;;15.13;10.50;;;17.60;58.90;;;;;;5098649;28;20459;-73
2022/05/06 11:20:17;;;;;;;21.35;12.00;;;17.60;59.40;;;;;;5098680;28;20095;-74
2022/05/06 11:23:11;;;;;;;14.25;11.75;;;17.70;58.90;;;;;;5098343;28;20138;-72
2022/05/06 11:25:43;;;;;;;15.52;9.25;;;17.70;58.80;;;;;;5095686;28;20031;-72
2022/05/06 11:28:13;;;;;;;13.57;10.00;;;17.70;59.40;;;;;;5098345;28;20126;-72
2022/05/06 11:30:44;;;;;;;12.32;9.15;;;17.80;59.50;;;;;;5098191;28;20028;-73
2022/05/06 11:33:25;;;;;;;14.18;11.18;;;18.00;59.40;;;;;;5098126;28;20027;-74
2022/05/06 11:36:01;;;;;;;17.45;11.25;;;18.00;57.50;;;;;;5097528;28;20055;-74
2022/05/06 11:38:34;;;;;;;17.70;11.70;;;17.40;57.90;;;;;;5097573;28;20047;-73
2022/05/06 11:41:14;;;;;;;14.73;11.35;;;17.10;59.80;;;;;;5097991;28;20486;-73
2022/05/06 11:43:44;;;;;;;15.57;11.95;;;16.80;60.50;;;;;;5097735;28;20376;-73
2022/05/06 11:49:06;;;;;;;18.95;12.43;;;16.20;63.70;;;;;;5116311;28;20396;-73
2022/05/06 11:51:40;;;;;;;18.08;12.30;;;16.20;62.80;;;;;;5097637;28;20016;-73
2022/05/06 11:54:07;;;;;;;16.63;11.68;;;16.30;62.80;;;;;;5097540;28;20028;-74
2022/05/06 11:56:33;;;;;;;15.55;11.07;;;16.40;62.40;;;;;;5097661;28;20042;-73
2022/05/06 11:59:00;;;;;;;16.23;11.55;;;16.40;62.10;;;;;;5097491;28;20434;-73
2022/05/06 12:01:34;;;;;;;15.90;12.10;;;16.30;63.00;;;;;;5097563;28;20502;-74
2022/05/06 12:04:07;;;;;;;24.00;12.55;;;16.20;63.40;;;;;;5097653;28;20043;-73
2022/05/06 12:06:37;;;;;;;17.73;12.40;;;16.20;63.90;;;;;;5097050;28;20058;-73
2022/05/06 12:09:14;;;;;;;16.05;11.95;;;16.10;62.90;;;;;;5115349;28;20038;-73
2022/05/06 12:11:41;;;;;;;17.40;11.50;;;16.00;63.00;;;;;;5115201;28;20036;-73
2022/05/06 12:14:08;;;;;;;22.25;13.23;;;15.90;64.00;;;;;;5113858;28;20032;-73
2022/05/06 12:16:34;;;;;;;16.20;12.30;;;16.00;64.00;;;;;;5115179;28;20020;-73
2022/05/06 12:19:00;;;;;;;20.02;12.13;;;15.90;63.80;;;;;;5115136;28;20015;-73
2022/05/06 12:21:27;;;;;;;17.63;11.57;;;16.00;64.70;;;;;;5115088;28;20080;-73
2022/05/06 12:23:57;;;;;;;16.92;11.35;;;16.20;64.60;;;;;;5115034;28;20098;-73
2022/05/06 12:26:37;;;;;;;18.48;12.98;;;16.50;63.90;;;;;;5114701;28;20066;-73
2022/05/06 12:29:17;;;;;;;14.90;10.82;;;16.70;61.90;;;;;;5115055;28;20035;-73
2022/05/06 12:31:43;;;;;;;13.82;11.27;;;17.00;61.50;;;;;;5114799;28;20024;-74
2022/05/06 12:34:08;;;;;;;16.42;10.43;;;17.20;60.10;;;;;;5114786;28;20085;-73
2022/05/06 12:36:38;;;;;;;18.45;11.32;;;17.40;58.60;;;;;;5114702;28;20024;-73
2022/05/06 12:39:17;;;;;;;11.93;10.48;;;17.50;57.50;;;;;;5114827;28;20027;-72
2022/05/06 12:41:43;;;;;;;14.95;10.15;;;17.60;57.00;;;;;;5114511;28;20030;-72
2022/05/06 12:44:24;;;;;;;15.15;10.68;;;17.80;57.10;;;;;;5114138;28;20027;-72
2022/05/06 12:46:50;;;;;;;17.60;10.13;;;17.80;56.50;;;;;;5113309;28;20027;-73
2022/05/06 12:52:04;;;;;;;12.07;8.63;;;17.50;55.00;;;;;;5114771;28;20038;-73
2022/05/06 12:54:30;;;;;;;12.43;9.63;;;17.50;55.90;;;;;;5114554;28;20434;-73
2022/05/06 12:56:55;;;;;;;16.80;10.02;;;17.80;55.40;;;;;;5114238;28;20020;-73
2022/05/06 12:59:21;;;;;;;16.13;9.85;;;17.90;55.40;;;;;;5096023;28;20482;-73
2022/05/06 13:01:47;;;;;;;14.95;10.13;;;17.70;54.00;;;;;;5114170;28;20027;-73
2022/05/06 13:04:13;;;;;;;15.77;9.98;;;17.50;54.30;;;;;;5114207;28;20023;-73
2022/05/06 13:06:38;;;;;;;16.48;9.40;;;17.30;55.60;;;;;;5113961;28;20043;-73
2022/05/06 13:09:04;;;;;;;17.52;10.18;;;17.50;56.10;;;;;;5114059;28;20336;-74
2022/05/06 13:11:29;;;;;;;14.00;10.02;;;17.50;55.90;;;;;;5114102;28;20015;-73
2022/05/06 13:13:55;;;;;;;14.20;9.23;;;17.40;56.40;;;;;;5113843;28;20387;-72